EWN weather

Coastal Carolina Regional Airport
New Bern, North Carolina, United States

Public forecast

Using degrees Fahrenheit for public forecast. Weather courtesy of forecast.io.

METAR (pilot weather report)

Retrieved 2019/04/22 18:54 UTC (1 hour ago):

KEWN 221854Z 32007G17KT 10SM CLR 23/09 A3012 RMK AO2 SLP197 T02280094

TAF (pilot weather forecast)

Retrieved 2019/04/22 18:24 UTC (2 hours ago):

TAF KEWN 221723Z 2218/2318 31007KT P6SM FEW060 FM222300 VRB04KT P6SM FEW250